Time;durP1;ratioP1;P1;durP2;ratioP2;P2;SDS_P1;SDS_P2;PMS_P1;PMS_P2;Temp;Humidity;BMP_temperature;BMP_pressure;BME280_temperature;BME280_humidity;BME280_pressure;Samples;Min_cycle;Max_cycle;Signal;HPM_P1;HPM_P2
2023/10/20 00:00:37;;;;;;;54.73;42.73;;;;;21.60;97592.00;;;;2078588;28;20298;-63
2023/10/20 00:01:38;;;;;;;56.50;43.03;;;;;21.60;97594.00;;;;2067793;28;20214;-63
2023/10/20 00:02:38;;;;;;;55.93;42.93;;;;;21.60;97595.00;;;;2066385;28;20271;-63
2023/10/20 00:03:38;;;;;;;52.20;39.50;;;;;21.60;97593.00;;;;2070778;28;20214;-63
2023/10/20 00:04:39;;;;;;;56.13;42.47;;;;;21.60;97580.00;;;;2073471;28;20277;-63
2023/10/20 00:05:39;;;;;;;50.90;40.47;;;;;21.60;97583.00;;;;2077268;28;20213;-63
2023/10/20 00:06:39;;;;;;;58.90;44.47;;;;;21.60;97582.00;;;;2069397;28;20221;-63
2023/10/20 00:07:40;;;;;;;57.10;42.17;;;;;21.60;97583.00;;;;2067565;28;20214;-63
2023/10/20 00:08:40;;;;;;;56.07;41.03;;;;;21.60;97575.00;;;;2067841;28;20224;-63
2023/10/20 00:09:41;;;;;;;49.63;40.10;;;;;21.60;97576.00;;;;2072633;28;20655;-63
2023/10/20 00:10:42;;;;;;;55.00;41.63;;;;;21.60;97577.00;;;;2080804;28;20911;-63
2023/10/20 00:11:43;;;;;;;51.33;39.00;;;;;21.60;97578.00;;;;2070619;28;20222;-63
2023/10/20 00:12:43;;;;;;;52.13;41.35;;;;;21.60;97573.00;;;;2068738;28;20225;-63
2023/10/20 00:13:43;;;;;;;48.47;37.87;;;;;21.60;97568.00;;;;2058857;28;20229;-63
2023/10/20 00:14:44;;;;;;;51.17;39.70;;;;;21.60;97579.00;;;;2080986;28;20212;-63
2023/10/20 00:15:45;;;;;;;49.47;38.47;;;;;21.60;97582.00;;;;2078406;28;20603;-63
2023/10/20 00:16:45;;;;;;;50.03;38.37;;;;;21.60;97586.00;;;;2071006;28;20532;-64
2023/10/20 00:17:45;;;;;;;48.87;36.93;;;;;21.60;97581.00;;;;2064855;28;20223;-64
2023/10/20 00:18:46;;;;;;;52.00;38.87;;;;;21.60;97579.00;;;;2071587;28;20287;-64
2023/10/20 00:19:46;;;;;;;53.03;38.43;;;;;21.60;97586.00;;;;2072224;28;20218;-64
2023/10/20 00:20:47;;;;;;;47.67;37.63;;;;;21.60;97589.00;;;;2068095;28;20207;-64
2023/10/20 00:21:47;;;;;;;47.00;38.23;;;;;21.60;97590.00;;;;2071055;28;20218;-63
2023/10/20 00:22:47;;;;;;;49.17;35.30;;;;;21.60;97581.00;;;;2063280;28;20309;-63
2023/10/20 00:23:48;;;;;;;49.77;37.47;;;;;21.60;97582.00;;;;2055274;28;20217;-63
2023/10/20 00:24:48;;;;;;;45.83;35.10;;;;;21.60;97579.00;;;;2079004;28;20640;-63
2023/10/20 00:25:48;;;;;;;45.30;34.87;;;;;21.50;97571.00;;;;2078931;28;20683;-63
2023/10/20 00:26:49;;;;;;;42.97;34.33;;;;;21.60;97570.00;;;;2070742;28;20559;-63
2023/10/20 00:27:49;;;;;;;42.77;34.30;;;;;21.50;97567.00;;;;2069375;28;20237;-63
2023/10/20 00:28:50;;;;;;;43.20;35.30;;;;;21.60;97566.00;;;;2058601;28;20218;-63
2023/10/20 00:29:50;;;;;;;45.80;35.10;;;;;21.50;97564.00;;;;2074436;28;20265;-64
2023/10/20 00:30:50;;;;;;;43.30;33.73;;;;;21.50;97564.00;;;;2077600;28;20212;-64
2023/10/20 00:31:51;;;;;;;40.80;33.07;;;;;21.50;97564.00;;;;2071533;28;20225;-63
2023/10/20 00:32:51;;;;;;;43.70;33.50;;;;;21.60;97524.00;;;;2069251;28;20235;-63
2023/10/20 00:33:51;;;;;;;44.63;36.13;;;;;21.60;97566.00;;;;2060739;28;20210;-63
2023/10/20 00:34:52;;;;;;;42.67;33.00;;;;;21.50;97516.00;;;;2080015;28;20205;-63
2023/10/20 00:35:53;;;;;;;44.60;32.50;;;;;21.50;97559.00;;;;2077433;28;20217;-63
2023/10/20 00:36:53;;;;;;;39.57;32.17;;;;;21.50;97569.00;;;;2065272;28;20211;-63
2023/10/20 00:37:53;;;;;;;39.67;31.57;;;;;21.50;97563.00;;;;2069844;28;20631;-63
2023/10/20 00:38:54;;;;;;;41.57;33.90;;;;;21.60;97563.00;;;;2056674;28;20631;-63
2023/10/20 00:39:54;;;;;;;41.13;32.67;;;;;21.50;97560.00;;;;2066341;28;20679;-63
2023/10/20 00:40:54;;;;;;;41.73;34.93;;;;;21.50;97557.00;;;;2072058;28;20206;-63
2023/10/20 00:41:56;;;;;;;41.03;31.70;;;;;21.50;97529.00;;;;2066494;28;20289;-63
2023/10/20 00:42:56;;;;;;;40.88;33.08;;;;;21.50;97557.00;;;;2063994;28;20211;-63
2023/10/20 00:43:57;;;;;;;41.30;31.07;;;;;21.50;97566.00;;;;2065732;28;20210;-63
2023/10/20 00:44:57;;;;;;;45.10;32.20;;;;;21.50;97550.00;;;;2082357;28;20220;-63
2023/10/20 00:45:59;;;;;;;40.47;31.07;;;;;21.50;97563.00;;;;2081756;28;20450;-63
2023/10/20 00:46:59;;;;;;;42.42;32.10;;;;;21.60;97528.00;;;;2063519;28;20289;-63
2023/10/20 00:47:59;;;;;;;38.00;29.30;;;;;21.50;97555.00;;;;2064615;28;20203;-63
2023/10/20 00:49:00;;;;;;;38.23;30.73;;;;;21.50;97557.00;;;;2054306;28;20317;-63
2023/10/20 00:50:00;;;;;;;35.13;28.50;;;;;21.50;97555.00;;;;2056610;28;20571;-63
2023/10/20 00:51:00;;;;;;;37.37;29.97;;;;;21.50;97555.00;;;;2068570;28;20645;-63
2023/10/20 00:52:01;;;;;;;35.70;28.60;;;;;21.50;97543.00;;;;2077958;28;20614;-63
2023/10/20 00:53:01;;;;;;;33.53;28.17;;;;;21.50;97540.00;;;;2080232;28;20583;-63
2023/10/20 00:54:01;;;;;;;38.00;30.13;;;;;21.50;97539.00;;;;2052237;28;21029;-63
2023/10/20 00:55:02;;;;;;;35.80;28.73;;;;;21.50;97500.00;;;;2064470;28;20643;-63
2023/10/20 00:56:03;;;;;;;34.90;27.60;;;;;21.50;97539.00;;;;2075083;28;20202;-63
2023/10/20 00:57:04;;;;;;;36.75;28.33;;;;;21.50;97531.00;;;;2061936;28;20291;-63
2023/10/20 00:58:04;;;;;;;36.00;29.40;;;;;21.50;97517.00;;;;2060827;28;20219;-63
2023/10/20 00:59:04;;;;;;;35.13;27.73;;;;;21.50;97532.00;;;;2044627;28;20262;-63
2023/10/20 01:00:08;;;;;;;35.33;28.63;;;;;21.50;97516.00;;;;2068504;28;20257;-63
2023/10/20 01:01:09;;;;;;;36.17;29.10;;;;;21.50;97514.00;;;;2075342;28;20618;-63
2023/10/20 01:02:09;;;;;;;33.73;27.43;;;;;21.50;97511.00;;;;2070941;28;20214;-63
2023/10/20 01:03:10;;;;;;;33.93;25.27;;;;;21.50;97509.00;;;;2069830;28;20280;-63
2023/10/20 01:04:11;;;;;;;35.37;27.47;;;;;21.50;97500.00;;;;2061383;28;20221;-62
2023/10/20 01:05:14;;;;;;;32.80;26.60;;;;;21.50;97505.00;;;;2062506;28;21265;-62
2023/10/20 01:06:15;;;;;;;37.45;28.92;;;;;21.50;97512.00;;;;2061253;28;20218;-62
2023/10/20 01:07:15;;;;;;;29.77;24.60;;;;;21.50;97500.00;;;;2071155;28;20225;-62
2023/10/20 01:08:15;;;;;;;31.20;25.33;;;;;21.50;97502.00;;;;2070598;28;20227;-62
2023/10/20 01:09:23;;;;;;;33.70;26.00;;;;;21.50;97497.00;;;;2066611;28;20221;-62
2023/10/20 01:10:24;;;;;;;29.80;23.95;;;;;21.50;97493.00;;;;2078680;28;20210;-62
2023/10/20 01:11:24;;;;;;;28.90;24.20;;;;;21.50;97488.00;;;;2073455;28;20237;-62
2023/10/20 01:12:24;;;;;;;29.13;24.40;;;;;21.50;97487.00;;;;2063393;28;20230;-62
2023/10/20 01:13:25;;;;;;;30.67;24.30;;;;;21.50;97490.00;;;;2070546;28;20700;-62
2023/10/20 01:14:25;;;;;;;27.87;22.13;;;;;21.50;97490.00;;;;2067040;28;20724;-62
2023/10/20 01:15:27;;;;;;;30.30;23.57;;;;;21.50;97486.00;;;;2079041;28;20263;-62
2023/10/20 01:16:27;;;;;;;29.15;23.83;;;;;21.50;97481.00;;;;2073639;28;20210;-62
2023/10/20 01:17:28;;;;;;;27.40;23.33;;;;;21.50;97472.00;;;;2072553;28;20238;-62
2023/10/20 01:18:28;;;;;;;31.43;24.07;;;;;21.50;97482.00;;;;2071420;28;20445;-62
2023/10/20 01:19:29;;;;;;;25.47;21.80;;;;;21.50;97471.00;;;;2075279;28;20224;-62
2023/10/20 01:20:29;;;;;;;28.37;22.90;;;;;21.50;97471.00;;;;2082983;28;20217;-62
2023/10/20 01:21:30;;;;;;;27.90;21.23;;;;;21.50;97480.00;;;;2073290;28;20237;-62
2023/10/20 01:22:30;;;;;;;27.90;22.07;;;;;21.50;97480.00;;;;2069883;28;20713;-62
2023/10/20 01:23:30;;;;;;;26.30;21.13;;;;;21.50;97483.00;;;;2071233;28;20739;-62
2023/10/20 01:24:31;;;;;;;27.20;21.20;;;;;21.50;97482.00;;;;2062706;28;20222;-62
2023/10/20 01:25:31;;;;;;;26.70;21.57;;;;;21.50;97473.00;;;;2071182;28;20677;-62
2023/10/20 01:26:31;;;;;;;25.57;20.83;;;;;21.50;97473.00;;;;2072771;28;20252;-62
2023/10/20 01:27:32;;;;;;;27.27;20.50;;;;;21.50;97477.00;;;;2070486;28;20218;-62
2023/10/20 01:28:32;;;;;;;27.03;22.07;;;;;21.50;97477.00;;;;2070052;28;20218;-62
2023/10/20 01:29:33;;;;;;;25.20;20.93;;;;;21.50;97474.00;;;;2061133;28;20222;-62
2023/10/20 01:30:33;;;;;;;23.73;20.53;;;;;21.50;97467.00;;;;2072157;28;20329;-62
2023/10/20 01:31:33;;;;;;;26.30;21.70;;;;;21.50;97469.00;;;;2071880;28;20210;-62
2023/10/20 01:32:35;;;;;;;24.23;20.07;;;;;21.50;97468.00;;;;2070583;28;20220;-62
2023/10/20 01:33:35;;;;;;;24.27;20.60;;;;;21.50;97454.00;;;;2069116;28;20229;-62
2023/10/20 01:34:35;;;;;;;24.80;20.50;;;;;21.50;97452.00;;;;2069458;28;20771;-62
2023/10/20 01:35:36;;;;;;;27.50;21.60;;;;;21.50;97448.00;;;;2080057;28;20887;-64
2023/10/20 01:36:37;;;;;;;25.67;21.10;;;;;21.50;97445.00;;;;2072152;28;20694;-63
2023/10/20 01:37:37;;;;;;;28.00;20.77;;;;;21.50;97447.00;;;;2066001;28;20227;-63
2023/10/20 01:38:37;;;;;;;25.23;20.40;;;;;21.50;97404.00;;;;2070973;28;20565;-63
2023/10/20 01:39:38;;;;;;;23.30;18.93;;;;;21.40;97389.00;;;;2063709;28;20710;-63
2023/10/20 01:40:38;;;;;;;23.97;19.87;;;;;21.50;97432.00;;;;2071878;28;20652;-63
2023/10/20 01:41:39;;;;;;;22.17;18.63;;;;;21.50;97445.00;;;;2071082;28;20218;-63
2023/10/20 01:42:39;;;;;;;27.83;19.83;;;;;21.50;97434.00;;;;2070965;28;20257;-63
2023/10/20 01:43:40;;;;;;;22.37;18.47;;;;;21.50;97444.00;;;;2070907;28;20272;-63
2023/10/20 01:44:40;;;;;;;21.93;18.00;;;;;21.50;97436.00;;;;2069218;28;20222;-63
2023/10/20 01:45:40;;;;;;;25.10;18.90;;;;;21.50;97443.00;;;;2080236;28;20280;-63
2023/10/20 01:46:49;;;;;;;22.93;18.30;;;;;21.50;97443.00;;;;2069282;28;20256;-63
2023/10/20 01:47:49;;;;;;;23.00;18.05;;;;;21.40;97433.00;;;;2072272;28;20679;-63
2023/10/20 01:48:50;;;;;;;24.50;19.60;;;;;21.50;97436.00;;;;2061069;28;20305;-63
2023/10/20 01:49:50;;;;;;;21.83;17.70;;;;;21.40;97438.00;;;;2071243;28;20224;-63
2023/10/20 01:50:50;;;;;;;23.87;19.13;;;;;21.50;97442.00;;;;2071904;28;20222;-63
2023/10/20 01:51:51;;;;;;;21.90;16.90;;;;;21.40;97437.00;;;;2064533;28;20215;-63
2023/10/20 01:52:51;;;;;;;21.10;17.93;;;;;21.40;97441.00;;;;2072313;28;21012;-63
2023/10/20 01:53:51;;;;;;;21.63;17.17;;;;;21.40;97438.00;;;;2062579;28;20214;-63
2023/10/20 01:54:52;;;;;;;22.97;18.80;;;;;21.40;97439.00;;;;2079860;28;20232;-64
2023/10/20 01:55:52;;;;;;;22.63;18.43;;;;;21.40;97438.00;;;;2076971;28;20659;-63
2023/10/20 01:56:52;;;;;;;23.30;19.17;;;;;21.40;97434.00;;;;2065150;28;20249;-63
2023/10/20 01:57:53;;;;;;;22.37;18.17;;;;;21.40;97437.00;;;;2072466;28;20577;-63
2023/10/20 01:58:53;;;;;;;21.63;17.30;;;;;21.40;97437.00;;;;2058621;28;20230;-63
2023/10/20 01:59:54;;;;;;;21.87;17.40;;;;;21.40;97432.00;;;;2066439;28;20229;-63
2023/10/20 02:00:55;;;;;;;19.60;17.07;;;;;21.40;97427.00;;;;2070137;28;20449;-63
2023/10/20 02:01:55;;;;;;;20.97;17.10;;;;;21.40;97433.00;;;;2072740;28;20809;-63
2023/10/20 02:02:55;;;;;;;20.13;16.27;;;;;21.40;97428.00;;;;2072640;28;20241;-63
2023/10/20 02:03:56;;;;;;;19.40;16.37;;;;;21.40;97389.00;;;;2056837;28;20588;-63
2023/10/20 02:04:56;;;;;;;20.83;16.23;;;;;21.40;97427.00;;;;2072393;28;20713;-63
2023/10/20 02:05:56;;;;;;;17.60;14.73;;;;;21.40;97422.00;;;;2071361;28;20674;-63
2023/10/20 02:06:57;;;;;;;17.57;15.37;;;;;21.40;97393.00;;;;2072079;28;20870;-63
2023/10/20 02:07:57;;;;;;;21.53;16.50;;;;;21.40;97420.00;;;;2062905;28;20726;-64
2023/10/20 02:08:58;;;;;;;20.70;16.70;;;;;21.40;97413.00;;;;2070173;28;20639;-63
2023/10/20 02:09:59;;;;;;;21.03;16.20;;;;;21.40;97404.00;;;;2079379;28;20705;-63
2023/10/20 02:10:59;;;;;;;20.15;16.40;;;;;21.40;97407.00;;;;2065091;28;20454;-63
2023/10/20 02:12:00;;;;;;;20.97;16.10;;;;;21.40;97399.00;;;;2072736;28;20214;-63
2023/10/20 02:13:00;;;;;;;17.87;15.03;;;;;21.40;97402.00;;;;2071512;28;20206;-63
2023/10/20 02:14:01;;;;;;;18.67;15.23;;;;;21.40;97402.00;;;;2063284;28;20267;-63
2023/10/20 02:15:01;;;;;;;19.20;15.30;;;;;21.40;97397.00;;;;2072109;28;20210;-63
2023/10/20 02:16:01;;;;;;;17.67;14.73;;;;;21.40;97397.00;;;;2070596;28;20229;-63
2023/10/20 02:17:02;;;;;;;17.30;14.70;;;;;21.40;97399.00;;;;2072034;28;20260;-63
2023/10/20 02:18:02;;;;;;;16.87;14.30;;;;;21.40;97398.00;;;;2066894;28;20211;-63
2023/10/20 02:19:04;;;;;;;18.80;15.60;;;;;21.40;97399.00;;;;2061456;28;20312;-63
2023/10/20 02:20:05;;;;;;;15.18;13.23;;;;;21.40;97402.00;;;;2065811;28;20206;-63
2023/10/20 02:21:07;;;;;;;19.20;15.37;;;;;21.40;97400.00;;;;2070013;28;20500;-64
2023/10/20 02:22:08;;;;;;;18.40;14.82;;;;;21.40;97377.00;;;;2070927;28;20466;-63
2023/10/20 02:23:08;;;;;;;18.43;14.30;;;;;21.40;97391.00;;;;2065257;28;20693;-63
2023/10/20 02:24:08;;;;;;;17.83;13.90;;;;;21.40;97391.00;;;;2062914;28;20221;-63
2023/10/20 02:25:10;;;;;;;17.53;13.37;;;;;21.40;97386.00;;;;2062377;28;20218;-63
2023/10/20 02:26:11;;;;;;;15.73;13.00;;;;;21.40;97389.00;;;;2070020;28;20218;-63
2023/10/20 02:27:11;;;;;;;15.20;12.50;;;;;21.40;97390.00;;;;2068456;28;20269;-63
2023/10/20 02:28:11;;;;;;;15.13;13.53;;;;;21.40;97390.00;;;;2072457;28;20264;-63
2023/10/20 02:29:12;;;;;;;17.03;13.37;;;;;21.40;97386.00;;;;2056236;28;20223;-63
2023/10/20 02:30:13;;;;;;;17.40;13.40;;;;;21.40;97380.00;;;;2065068;28;20704;-63
2023/10/20 02:31:17;;;;;;;15.18;12.15;;;;;21.40;97380.00;;;;2072121;28;20218;-63
2023/10/20 02:32:17;;;;;;;16.10;12.80;;;;;21.40;97370.00;;;;2068972;28;20766;-63
2023/10/20 02:33:17;;;;;;;15.70;13.30;;;;;21.40;97371.00;;;;2077544;28;20215;-63
2023/10/20 02:34:18;;;;;;;14.73;12.00;;;;;21.40;97363.00;;;;2062035;28;20214;-63
2023/10/20 02:35:18;;;;;;;15.20;12.10;;;;;21.40;97354.00;;;;2072266;28;20244;-63
2023/10/20 02:36:19;;;;;;;16.10;12.30;;;;;21.40;97355.00;;;;2071195;28;20209;-63
2023/10/20 02:37:19;;;;;;;16.67;12.20;;;;;21.40;97356.00;;;;2071344;28;20206;-63
2023/10/20 02:38:20;;;;;;;14.93;12.23;;;;;21.40;97357.00;;;;2072273;28;20213;-63
2023/10/20 02:39:21;;;;;;;15.67;13.13;;;;;21.40;97354.00;;;;2061208;28;20226;-63
2023/10/20 02:40:22;;;;;;;13.77;12.07;;;;;21.40;97351.00;;;;2067030;28;20773;-63
2023/10/20 02:41:22;;;;;;;16.40;13.77;;;;;21.40;97354.00;;;;2067945;28;20226;-63
2023/10/20 02:42:23;;;;;;;14.23;11.73;;;;;21.40;97353.00;;;;2067320;28;20222;-63
2023/10/20 02:43:23;;;;;;;14.37;11.97;;;;;21.40;97351.00;;;;2072329;28;20225;-63
2023/10/20 02:44:27;;;;;;;12.70;11.30;;;;;21.40;97351.00;;;;2071231;28;20271;-63
2023/10/20 02:45:27;;;;;;;16.33;12.95;;;;;21.40;97330.00;;;;2082788;28;20230;-63
2023/10/20 02:46:27;;;;;;;16.10;12.27;;;;;21.40;97317.00;;;;2070606;28;20242;-64
2023/10/20 02:47:28;;;;;;;14.60;11.63;;;;;21.30;97342.00;;;;2071625;28;20225;-63
2023/10/20 02:48:28;;;;;;;13.03;10.77;;;;;21.40;97347.00;;;;2069238;28;20233;-63
2023/10/20 02:49:29;;;;;;;12.63;10.60;;;;;21.40;97344.00;;;;2058625;28;20249;-63
2023/10/20 02:50:29;;;;;;;12.17;10.87;;;;;21.40;97339.00;;;;2071215;28;20272;-63
2023/10/20 02:51:29;;;;;;;14.37;11.43;;;;;21.40;97335.00;;;;2068698;28;20218;-63
2023/10/20 02:52:30;;;;;;;17.20;11.90;;;;;21.40;97336.00;;;;2072235;28;20229;-63
2023/10/20 02:53:30;;;;;;;12.30;10.50;;;;;21.40;97329.00;;;;2064831;28;20261;-63
2023/10/20 02:54:30;;;;;;;12.90;10.90;;;;;21.40;97330.00;;;;2056228;28;20252;-63
2023/10/20 02:55:31;;;;;;;13.50;10.70;;;;;21.40;97332.00;;;;2064664;28;20221;-63
2023/10/20 02:56:32;;;;;;;11.48;10.23;;;;;21.40;97335.00;;;;2069767;28;20222;-63
2023/10/20 02:57:32;;;;;;;15.73;11.50;;;;;21.40;97331.00;;;;2071083;28;20714;-63
2023/10/20 02:58:33;;;;;;;14.07;11.57;;;;;21.40;97331.00;;;;2063973;28;20746;-63
2023/10/20 02:59:33;;;;;;;12.53;10.83;;;;;21.40;97319.00;;;;2056695;28;20230;-63
2023/10/20 03:00:34;;;;;;;12.47;10.87;;;;;21.40;97318.00;;;;2062863;28;20218;-63
2023/10/20 03:01:34;;;;;;;11.77;10.47;;;;;21.40;97316.00;;;;2069064;28;20852;-63
2023/10/20 03:02:34;;;;;;;13.00;11.20;;;;;21.40;97304.00;;;;2067798;28;20230;-63
2023/10/20 03:03:38;;;;;;;13.90;11.33;;;;;21.40;97296.00;;;;2066964;28;20292;-63
2023/10/20 03:04:39;;;;;;;11.40;10.18;;;;;21.40;97301.00;;;;2060086;28;20222;-63
2023/10/20 03:05:43;;;;;;;13.03;9.67;;;;;21.40;97287.00;;;;2062719;28;20215;-63
2023/10/20 03:06:43;;;;;;;13.13;10.60;;;;;21.40;97291.00;;;;2071192;28;20784;-63
2023/10/20 03:07:44;;;;;;;12.90;9.90;;;;;21.40;97287.00;;;;2067467;28;20217;-63
2023/10/20 03:08:45;;;;;;;13.20;9.87;;;;;21.40;97291.00;;;;2060318;28;20214;-63
2023/10/20 03:09:45;;;;;;;13.77;11.07;;;;;21.40;97285.00;;;;2071610;28;20316;-63
2023/10/20 03:10:45;;;;;;;13.23;10.90;;;;;21.40;97285.00;;;;2070404;28;20229;-63
2023/10/20 03:11:46;;;;;;;11.67;10.03;;;;;21.40;97288.00;;;;2071958;28;20222;-63
2023/10/20 03:12:46;;;;;;;12.20;10.33;;;;;21.40;97279.00;;;;2066699;28;20214;-63
2023/10/20 03:13:46;;;;;;;11.80;10.00;;;;;21.40;97285.00;;;;2059651;28;20214;-63
2023/10/20 03:14:47;;;;;;;11.30;9.20;;;;;21.40;97279.00;;;;2067973;28;20249;-63
2023/10/20 03:15:49;;;;;;;11.68;9.05;;;;;21.40;97276.00;;;;2065362;28;20222;-63
2023/10/20 03:16:49;;;;;;;11.35;10.10;;;;;21.40;97280.00;;;;2069487;28;20245;-63
2023/10/20 03:17:51;;;;;;;10.60;9.47;;;;;21.40;97275.00;;;;2063739;28;20238;-63
2023/10/20 03:18:51;;;;;;;13.48;9.50;;;;;21.40;97279.00;;;;2058628;28;20292;-63
2023/10/20 03:19:52;;;;;;;11.50;10.30;;;;;21.40;97270.00;;;;2069448;28;20254;-63
2023/10/20 03:20:52;;;;;;;10.17;8.37;;;;;21.40;97271.00;;;;2063825;28;20231;-63
2023/10/20 03:21:53;;;;;;;10.87;9.27;;;;;21.40;97270.00;;;;2068902;28;20599;-63
2023/10/20 03:22:53;;;;;;;9.13;8.13;;;;;21.30;97267.00;;;;2070621;28;20729;-63
2023/10/20 03:23:54;;;;;;;13.33;9.47;;;;;21.40;97255.00;;;;2060338;28;20702;-63
2023/10/20 03:24:54;;;;;;;10.13;8.73;;;;;21.30;97243.00;;;;2070972;28;20218;-63
2023/10/20 03:25:54;;;;;;;9.03;7.90;;;;;21.30;97238.00;;;;2064612;28;20698;-63
2023/10/20 03:26:55;;;;;;;10.30;8.80;;;;;21.30;97232.00;;;;2067879;28;20237;-63
2023/10/20 03:27:55;;;;;;;9.53;8.20;;;;;21.30;97230.00;;;;2070716;28;20268;-63
2023/10/20 03:28:56;;;;;;;10.43;8.93;;;;;21.30;97227.00;;;;2060077;28;20226;-64
2023/10/20 03:29:56;;;;;;;9.57;8.57;;;;;21.30;97205.00;;;;2071745;28;20288;-63
2023/10/20 03:30:56;;;;;;;10.67;8.83;;;;;21.30;97218.00;;;;2069464;28;20226;-63
2023/10/20 03:31:57;;;;;;;10.23;8.70;;;;;21.30;97211.00;;;;2069801;28;20747;-63
2023/10/20 03:32:58;;;;;;;9.30;8.10;;;;;21.30;97216.00;;;;2071938;28;20230;-63
2023/10/20 03:33:58;;;;;;;10.57;8.50;;;;;21.40;97222.00;;;;2058295;28;20453;-63
2023/10/20 03:34:58;;;;;;;9.90;8.87;;;;;21.30;97225.00;;;;2068270;28;20228;-63
2023/10/20 03:36:00;;;;;;;8.67;7.77;;;;;21.30;97223.00;;;;2070417;28;20226;-63
2023/10/20 03:37:01;;;;;;;10.60;8.25;;;;;21.30;97225.00;;;;2065259;28;20233;-63
2023/10/20 03:38:03;;;;;;;9.63;8.37;;;;;21.30;97230.00;;;;2071432;28;20226;-63
2023/10/20 03:39:14;;;;;;;10.50;7.85;;;;;21.30;97233.00;;;;2057986;28;20241;-63
2023/10/20 03:40:16;;;;;;;10.50;8.48;;;;;21.30;97235.00;;;;2067300;28;20221;-63
2023/10/20 03:41:16;;;;;;;10.40;8.00;;;;;21.30;97246.00;;;;2070387;28;20229;-63
2023/10/20 03:42:16;;;;;;;9.50;8.13;;;;;21.30;97241.00;;;;2064981;28;20207;-63
2023/10/20 03:43:17;;;;;;;9.53;7.87;;;;;21.30;97235.00;;;;2071303;28;20597;-63
2023/10/20 03:44:17;;;;;;;11.10;8.30;;;;;21.30;97231.00;;;;2051896;28;20234;-63
2023/10/20 03:45:18;;;;;;;7.70;6.90;;;;;21.30;97233.00;;;;2066021;28;20226;-63
2023/10/20 03:46:18;;;;;;;9.60;7.33;;;;;21.30;97227.00;;;;2067842;28;20215;-63
2023/10/20 03:47:21;;;;;;;8.90;7.77;;;;;21.30;97231.00;;;;2071861;28;20214;-63
2023/10/20 03:48:23;;;;;;;9.43;7.43;;;;;21.30;97231.00;;;;2063969;28;20202;-63
2023/10/20 03:49:24;;;;;;;9.55;8.00;;;;;21.30;97235.00;;;;2059354;28;20228;-63
2023/10/20 03:50:24;;;;;;;9.50;7.93;;;;;21.30;97228.00;;;;2071624;28;20217;-63
2023/10/20 03:51:24;;;;;;;12.53;7.60;;;;;21.30;97227.00;;;;2065838;28;21152;-63
2023/10/20 03:52:28;;;;;;;9.00;7.30;;;;;21.30;97226.00;;;;2071544;28;20591;-63
2023/10/20 03:53:33;;;;;;;9.35;7.40;;;;;21.30;97223.00;;;;2068145;28;20222;-63
2023/10/20 03:54:34;;;;;;;11.32;7.78;;;;;21.30;97213.00;;;;2061465;28;20229;-64
2023/10/20 03:55:34;;;;;;;9.18;7.30;;;;;21.30;97205.00;;;;2067763;28;20318;-63
2023/10/20 03:56:35;;;;;;;10.43;7.90;;;;;21.30;97204.00;;;;2068452;28;20213;-63
2023/10/20 03:57:35;;;;;;;9.50;7.83;;;;;21.30;97204.00;;;;2070587;28;20230;-63
2023/10/20 03:58:36;;;;;;;8.60;7.50;;;;;21.30;97212.00;;;;2071160;28;20228;-63
2023/10/20 03:59:37;;;;;;;9.07;7.77;;;;;21.30;97213.00;;;;2060298;28;20237;-63
2023/10/20 04:00:41;;;;;;;8.02;6.90;;;;;21.30;97232.00;;;;2067077;28;20219;-63
2023/10/20 04:01:42;;;;;;;8.15;6.97;;;;;21.30;97228.00;;;;2071417;28;20209;-63
2023/10/20 04:02:42;;;;;;;8.40;7.17;;;;;21.30;97231.00;;;;2068610;28;20253;-63
2023/10/20 04:03:49;;;;;;;9.60;7.40;;;;;21.30;97227.00;;;;2067904;28;20280;-63
2023/10/20 04:04:49;;;;;;;8.23;6.60;;;;;21.30;97214.00;;;;2069610;28;20351;-63
2023/10/20 04:05:49;;;;;;;8.70;6.93;;;;;21.30;97196.00;;;;2066314;28;20214;-63
2023/10/20 04:06:50;;;;;;;9.33;7.80;;;;;21.30;97187.00;;;;2068694;28;20233;-62
2023/10/20 04:07:50;;;;;;;7.77;6.97;;;;;21.30;97167.00;;;;2065218;28;20215;-62
2023/10/20 04:08:50;;;;;;;7.70;6.67;;;;;21.30;97163.00;;;;2059304;28;20238;-62
2023/10/20 04:09:51;;;;;;;7.57;6.70;;;;;21.30;97166.00;;;;2069258;28;20257;-62
2023/10/20 04:10:58;;;;;;;9.70;7.83;;;;;21.30;97174.00;;;;2065475;28;20203;-62
2023/10/20 04:11:58;;;;;;;8.15;7.30;;;;;21.30;97186.00;;;;2069733;28;20214;-62
2023/10/20 04:12:58;;;;;;;7.77;6.97;;;;;21.30;97185.00;;;;2070231;28;20206;-62
2023/10/20 04:13:59;;;;;;;6.90;6.20;;;;;21.30;97182.00;;;;2059867;28;20241;-62
2023/10/20 04:15:00;;;;;;;7.77;6.50;;;;;21.30;97171.00;;;;2068712;28;20225;-62
2023/10/20 04:16:13;;;;;;;6.93;6.22;;;;;21.30;97167.00;;;;2066167;28;20227;-62
2023/10/20 04:17:15;;;;;;;7.38;6.57;;;;;21.30;97162.00;;;;2063157;28;20853;-62
2023/10/20 04:18:16;;;;;;;8.98;7.18;;;;;21.30;97165.00;;;;2084299;28;20332;-62
2023/10/20 04:19:16;;;;;;;7.17;6.47;;;;;21.30;97160.00;;;;2068252;28;20256;-62
2023/10/20 04:20:18;;;;;;;6.60;5.77;;;;;21.30;97156.00;;;;2070877;28;20251;-62
2023/10/20 04:21:18;;;;;;;8.38;6.78;;;;;21.30;97160.00;;;;2063792;28;20214;-62
2023/10/20 04:22:19;;;;;;;6.37;5.77;;;;;21.30;97131.00;;;;2068989;28;20289;-62
2023/10/20 04:23:20;;;;;;;7.90;6.33;;;;;21.30;97128.00;;;;2071581;28;20216;-62
2023/10/20 04:24:21;;;;;;;8.23;6.82;;;;;21.30;97165.00;;;;2053021;28;20218;-62
2023/10/20 04:25:22;;;;;;;6.20;5.60;;;;;21.30;97162.00;;;;2069337;28;20212;-62
2023/10/20 04:26:22;;;;;;;7.00;6.30;;;;;21.30;97164.00;;;;2070995;28;20689;-62
2023/10/20 04:27:39;;;;;;;8.60;6.50;;;;;21.30;97154.00;;;;2066366;28;20993;-62
2023/10/20 04:28:42;;;;;;;6.35;5.72;;;;;21.30;97158.00;;;;2071516;28;20308;-62
2023/10/20 04:41:50;;;;;;;6.78;6.05;;;;;21.30;97146.00;;;;2059642;28;20279;-62
2023/10/20 04:43:37;;;;;;;6.13;5.53;;;;;21.30;97136.00;;;;2069497;28;20645;-63
2023/10/20 04:52:23;;;;;;;6.28;5.28;;;;;21.30;97088.00;;;;2068199;28;20253;-63
2023/10/20 04:54:22;;;;;;;8.68;5.75;;;;;21.30;97083.00;;;;2061213;28;20296;-63
2023/10/20 04:56:39;;;;;;;6.80;5.38;;;;;21.30;97081.00;;;;2072770;28;20218;-63
2023/10/20 04:58:59;;;;;;;5.95;5.20;;;;;21.30;97073.00;;;;2061405;28;20289;-63
2023/10/20 05:04:15;;;;;;;5.40;4.90;;;;;21.30;97061.00;;;;2064690;28;20206;-63
2023/10/20 05:06:27;;;;;;;5.75;4.90;;;;;21.30;97064.00;;;;2070069;28;20691;-63
2023/10/20 05:07:28;;;;;;;6.53;5.07;;;;;21.30;97058.00;;;;2068536;28;20242;-63
2023/10/20 05:08:28;;;;;;;5.82;5.22;;;;;21.30;97056.00;;;;2072624;28;20219;-63
2023/10/20 05:09:32;;;;;;;6.07;5.30;;;;;21.30;97055.00;;;;2061519;28;20226;-63
2023/10/20 05:10:32;;;;;;;7.10;5.43;;;;;21.30;97050.00;;;;2071965;28;20864;-63
2023/10/20 05:11:33;;;;;;;6.20;5.60;;;;;21.30;97043.00;;;;2064779;28;20211;-63
2023/10/20 05:12:34;;;;;;;6.17;5.50;;;;;21.30;97041.00;;;;2070893;28;20582;-63
2023/10/20 05:13:35;;;;;;;7.35;5.45;;;;;21.30;97039.00;;;;2072919;28;20729;-63
2023/10/20 05:14:35;;;;;;;5.40;4.90;;;;;21.30;97037.00;;;;2058758;28;20237;-63
2023/10/20 05:15:38;;;;;;;6.10;5.00;;;;;21.30;97029.00;;;;2072878;28;20257;-63
2023/10/20 05:16:39;;;;;;;5.97;5.28;;;;;21.30;97027.00;;;;2069879;28;20227;-63
2023/10/20 05:17:39;;;;;;;6.20;4.97;;;;;21.30;97019.00;;;;2070475;28;20272;-63
2023/10/20 05:18:40;;;;;;;5.60;5.03;;;;;21.30;97017.00;;;;2071579;28;20217;-63
2023/10/20 05:19:40;;;;;;;4.97;4.47;;;;;21.30;97019.00;;;;2059714;28;20285;-63
2023/10/20 05:20:41;;;;;;;5.67;4.87;;;;;21.30;97017.00;;;;2071991;28;20269;-63
2023/10/20 05:21:42;;;;;;;6.10;5.25;;;;;21.40;97022.00;;;;2068310;28;20226;-63
2023/10/20 05:22:42;;;;;;;5.10;4.27;;;;;21.30;97018.00;;;;2072444;28;20232;-63
2023/10/20 05:23:43;;;;;;;6.80;5.10;;;;;21.40;97029.00;;;;2071086;28;20218;-64
2023/10/20 05:24:44;;;;;;;5.75;4.65;;;;;21.40;97017.00;;;;2058639;28;20280;-63
2023/10/20 05:25:45;;;;;;;7.00;4.60;;;;;21.40;97020.00;;;;2070881;28;20273;-63
2023/10/20 05:26:46;;;;;;;5.18;4.63;;;;;21.40;97022.00;;;;2070855;28;20218;-63
2023/10/20 05:27:46;;;;;;;5.80;5.07;;;;;21.40;97018.00;;;;2072728;28;20214;-63
2023/10/20 05:28:47;;;;;;;6.23;4.70;;;;;21.40;97017.00;;;;2059596;28;20207;-63
2023/10/20 05:29:47;;;;;;;5.40;4.60;;;;;21.40;97013.00;;;;2069094;28;20276;-63